Terminal Aerodrome Forecast
Issued by NWS Charleston, WV

Current Version | Previous Version | Text Only | Print | Product List | Glossary Off
Versions: 1 2 3 4 5 6 7 8 9 10 11 12 13 14 15 16 17 18 19 20 21 22 23 24 25 26 27 28

611
FTUS41 KRLX 221138
TAFPKB
TAF
KPKB 221138Z 2212/2312 VRB03KT P6SM -SHRA OVC050
     FM221300 VRB03KT P6SM -SHRA OVC026
     FM221600 18004KT 6SM -SHRA BR OVC013
     FM222000 19005KT P6SM BKN013
     FM230200 VRB03KT P6SM BKN022=

USA.gov is the U.S. government's official web portal to all federal, state and local government web resources and services.